Time;durP1;ratioP1;P1;durP2;ratioP2;P2;SDS_P1;SDS_P2;PMS_P1;PMS_P2;Temp;Humidity;BMP_temperature;BMP_pressure;BME280_temperature;BME280_humidity;BME280_pressure;Samples;Min_cycle;Max_cycle;Signal;HPM_P1;HPM_P2
2022/08/31 00:04:50;;;;;;;4.97;1.25;;;;;;;16.55;69.33;102189.34;5037125;28;20044;-69
2022/08/31 00:07:15;;;;;;;2.90;1.30;;;;;;;16.69;68.81;102191.00;5036915;28;20380;-69
2022/08/31 00:09:40;;;;;;;6.63;1.40;;;;;;;16.56;69.28;102188.31;5035548;28;20025;-69
2022/08/31 00:12:06;;;;;;;3.00;1.20;;;;;;;16.65;68.80;102187.16;5035558;28;20033;-69
2022/08/31 00:14:31;;;;;;;7.72;1.75;;;;;;;16.59;68.93;102189.75;5036696;28;20029;-69
2022/08/31 00:16:57;;;;;;;4.65;1.30;;;;;;;16.62;68.73;102184.94;5035295;28;20025;-69
2022/08/31 00:19:22;;;;;;;3.03;1.33;;;;;;;16.40;69.50;102192.06;5036686;28;20087;-70
2022/08/31 00:21:48;;;;;;;3.95;1.48;;;;;;;16.42;69.53;102187.44;5036763;28;20377;-69
2022/08/31 00:24:13;;;;;;;3.92;1.50;;;;;;;16.55;69.05;102186.72;5037719;28;20491;-72
2022/08/31 00:26:39;;;;;;;2.97;1.35;;;;;;;16.52;68.98;102188.91;5040064;28;20109;-72
2022/08/31 00:29:04;;;;;;;1.90;1.30;;;;;;;16.45;69.24;102194.06;5035940;28;20121;-70
2022/08/31 00:31:30;;;;;;;3.38;1.50;;;;;;;16.31;69.19;102187.97;5036471;28;20029;-70
2022/08/31 00:33:55;;;;;;;4.03;1.45;;;;;;;16.44;68.80;102187.25;5036499;28;20068;-70
2022/08/31 00:36:23;;;;;;;7.65;1.80;;;;;;;16.52;68.48;102187.09;5036332;28;20018;-70
2022/08/31 00:38:49;;;;;;;2.33;1.40;;;;;;;16.56;68.35;102188.31;5034934;28;20033;-70
2022/08/31 00:41:17;;;;;;;3.75;1.25;;;;;;;16.36;69.12;102196.03;5036361;28;20044;-70
2022/08/31 00:43:50;;;;;;;2.47;1.58;;;;;;;16.47;68.52;102189.47;5036241;28;20026;-70
2022/08/31 00:46:19;;;;;;;2.67;1.52;;;;;;;16.36;68.61;102177.75;5034878;28;20192;-70
2022/08/31 00:49:07;;;;;;;2.90;1.52;;;;;;;16.31;69.18;102179.34;5035938;28;20052;-70
2022/08/31 00:51:38;;;;;;;4.70;1.42;;;;;;;16.32;68.95;102194.00;5034772;28;20083;-70
2022/08/31 00:54:06;;;;;;;1.80;1.40;;;;;;;16.33;68.67;102185.19;5035815;28;20041;-70
2022/08/31 00:56:34;;;;;;;4.13;1.25;;;;;;;16.28;69.15;102180.50;5034858;28;20480;-70
2022/08/31 00:59:00;;;;;;;2.70;1.40;;;;;;;16.23;69.41;102190.75;5035804;28;20100;-70
2022/08/31 01:01:26;;;;;;;4.20;1.52;;;;;;;16.27;68.99;102185.94;5034487;28;20068;-71
2022/08/31 01:03:53;;;;;;;2.38;1.15;;;;;;;16.32;69.02;102188.78;5035855;28;20032;-69
2022/08/31 01:06:19;;;;;;;4.55;1.50;;;;;;;16.29;69.03;102189.97;5035869;28;20112;-69
2022/08/31 01:08:45;;;;;;;3.33;1.70;;;;;;;16.22;69.11;102205.56;5034399;28;20510;-69
2022/08/31 01:11:12;;;;;;;3.00;1.25;;;;;;;16.08;69.77;102190.81;5035737;28;20017;-71
2022/08/31 01:13:38;;;;;;;4.90;1.40;;;;;;;16.13;69.53;102196.25;5035693;28;20025;-71
2022/08/31 01:16:09;;;;;;;4.80;1.20;;;;;;;16.10;69.92;102182.81;5034389;28;20071;-69
2022/08/31 01:18:35;;;;;;;2.17;1.40;;;;;;;16.09;69.69;102191.63;5034272;28;20120;-70
2022/08/31 01:21:01;;;;;;;3.42;1.48;;;;;;;16.21;69.19;102187.50;5034241;28;20021;-69
2022/08/31 01:23:46;;;;;;;2.55;1.30;;;;;;;16.22;69.11;102189.91;5035737;28;20036;-70
2022/08/31 01:26:16;;;;;;;3.60;1.75;;;;;;;16.15;69.46;102188.25;5035131;28;20390;-70
2022/08/31 01:28:42;;;;;;;1.40;1.20;;;;;;;15.97;69.98;102193.94;5035425;28;20041;-69
2022/08/31 01:31:21;;;;;;;4.20;1.40;;;;;;;16.10;69.59;102190.63;5034179;28;20017;-71
2022/08/31 01:33:46;;;;;;;1.95;1.30;;;;;;;15.96;70.05;102197.53;5034122;28;20017;-70
2022/08/31 01:36:13;;;;;;;3.45;1.70;;;;;;;15.97;70.35;102194.75;5035160;28;20112;-70
2022/08/31 01:38:38;;;;;;;6.78;1.58;;;;;;;15.97;70.26;102194.75;5035073;28;20410;-69
2022/08/31 01:41:04;;;;;;;3.30;1.50;;;;;;;15.79;70.73;102189.16;5035122;28;20029;-73
2022/08/31 01:43:35;;;;;;;5.53;1.60;;;;;;;15.88;70.62;102197.66;5035172;28;20037;-69
2022/08/31 01:46:03;;;;;;;2.92;1.42;;;;;;;15.97;70.60;102202.56;5033860;28;20108;-69
2022/08/31 01:48:28;;;;;;;3.03;1.48;;;;;;;15.93;70.74;102208.34;5035034;28;20021;-68
2022/08/31 01:50:54;;;;;;;3.50;1.38;;;;;;;15.94;70.46;102202.13;5033729;28;20104;-69
2022/08/31 01:53:19;;;;;;;4.70;1.70;;;;;;;15.92;70.80;102210.13;5034786;28;20048;-69
2022/08/31 01:55:45;;;;;;;2.50;1.42;;;;;;;15.86;71.05;102199.66;5034785;28;20050;-69
2022/08/31 01:58:11;;;;;;;2.78;1.67;;;;;;;15.90;71.16;102200.91;5033481;28;20028;-69
2022/08/31 02:00:38;;;;;;;3.40;1.70;;;;;;;15.73;71.40;102201.13;5034791;28;20025;-69
2022/08/31 02:03:06;;;;;;;3.72;1.70;;;;;;;15.80;71.52;102198.63;5034754;28;20075;-69
2022/08/31 02:05:32;;;;;;;2.85;1.50;;;;;;;15.82;71.09;102193.19;5033394;28;20029;-70
2022/08/31 02:07:57;;;;;;;4.85;1.70;;;;;;;15.82;71.39;102201.03;5034747;28;20100;-69
2022/08/31 02:10:23;;;;;;;2.40;1.30;;;;;;;15.77;71.32;102199.00;5034656;28;20025;-69
2022/08/31 02:12:48;;;;;;;5.72;1.50;;;;;;;15.83;71.41;102205.25;5034080;28;20107;-69
2022/08/31 02:15:14;;;;;;;3.92;1.60;;;;;;;15.73;71.90;102202.94;5034438;28;20393;-69
2022/08/31 02:17:39;;;;;;;3.63;1.58;;;;;;;15.66;71.83;102207.28;5034279;28;20024;-69
2022/08/31 02:20:07;;;;;;;5.13;1.48;;;;;;;15.70;71.67;102198.91;5034609;28;20033;-70
2022/08/31 02:22:33;;;;;;;2.70;1.40;;;;;;;15.63;72.15;102197.22;5034311;28;20397;-69
2022/08/31 02:24:58;;;;;;;3.00;1.70;;;;;;;15.83;71.22;102203.44;5034257;28;20036;-70
2022/08/31 02:27:24;;;;;;;2.47;1.50;;;;;;;15.77;71.20;102207.59;5034222;28;20049;-70
2022/08/31 02:29:49;;;;;;;3.28;1.38;;;;;;;15.69;71.78;102202.50;5034364;28;20025;-70
2022/08/31 02:32:15;;;;;;;3.20;1.58;;;;;;;15.81;70.98;102207.22;5032760;28;20029;-70
2022/08/31 02:34:40;;;;;;;3.15;1.70;;;;;;;15.60;71.69;102193.19;5034262;28;20030;-70
2022/08/31 02:37:06;;;;;;;3.30;1.60;;;;;;;15.64;72.03;102197.03;5032708;28;20033;-70
2022/08/31 02:39:31;;;;;;;3.30;1.70;;;;;;;15.68;71.69;102193.09;5034110;28;20124;-69
2022/08/31 02:41:58;;;;;;;3.22;1.60;;;;;;;15.67;71.58;102203.66;5034062;28;20116;-71
2022/08/31 02:44:23;;;;;;;4.53;1.90;;;;;;;15.61;71.52;102196.59;5033991;28;20080;-70
2022/08/31 02:46:49;;;;;;;2.65;1.48;;;;;;;15.37;72.27;102184.72;5033861;28;20053;-71
2022/08/31 02:49:14;;;;;;;5.60;1.67;;;;;;;15.61;71.58;102194.78;5033735;28;20393;-70
2022/08/31 02:51:40;;;;;;;4.63;1.80;;;;;;;15.62;71.44;102188.56;5033851;28;20489;-70
2022/08/31 02:54:06;;;;;;;2.92;1.70;;;;;;;15.56;71.47;102194.53;5033579;28;20049;-70
2022/08/31 02:56:31;;;;;;;2.38;1.58;;;;;;;15.54;71.27;102192.13;5033684;28;20028;-70
2022/08/31 02:58:57;;;;;;;2.58;1.60;;;;;;;15.52;71.18;102185.47;5033693;28;20104;-70
2022/08/31 03:01:25;;;;;;;4.35;1.90;;;;;;;15.52;71.38;102196.69;5033651;28;20458;-70
2022/08/31 03:03:50;;;;;;;6.32;1.80;;;;;;;15.44;71.32;102193.41;5033601;28;20131;-69
2022/08/31 03:06:18;;;;;;;2.63;1.63;;;;;;;15.37;71.21;102195.94;5033576;28;20126;-71
2022/08/31 03:08:44;;;;;;;2.85;1.48;;;;;;;15.38;71.27;102204.56;5033791;28;20021;-70
2022/08/31 03:11:10;;;;;;;5.20;1.70;;;;;;;15.40;70.90;102206.00;5033586;28;20113;-68
2022/08/31 03:13:36;;;;;;;4.82;1.85;;;;;;;15.41;70.59;102205.00;5033490;28;20493;-67
2022/08/31 03:16:03;;;;;;;9.50;1.60;;;;;;;15.21;70.78;102196.16;5033590;28;20026;-69
2022/08/31 03:18:28;;;;;;;10.85;1.70;;;;;;;15.41;70.24;102204.19;5033327;28;20049;-69
2022/08/31 03:20:53;;;;;;;2.95;1.40;;;;;;;15.45;70.09;102202.81;5033541;28;20487;-69
2022/08/31 03:23:19;;;;;;;3.75;1.60;;;;;;;15.39;69.82;102204.38;5033050;28;20025;-70
2022/08/31 03:25:44;;;;;;;3.58;1.60;;;;;;;15.16;70.28;102204.50;5032867;28;20035;-70
2022/08/31 03:28:10;;;;;;;2.95;1.35;;;;;;;15.21;69.95;102212.59;5033381;28;20404;-69
2022/08/31 03:30:36;;;;;;;3.47;1.55;;;;;;;15.14;69.43;102200.50;5033261;28;20025;-69
2022/08/31 03:33:01;;;;;;;3.38;1.30;;;;;;;15.23;69.12;102207.22;5031937;28;20028;-69
2022/08/31 03:35:26;;;;;;;2.83;1.48;;;;;;;15.25;69.37;102211.25;5031946;28;20025;-69
2022/08/31 03:37:52;;;;;;;2.60;1.40;;;;;;;15.19;68.92;102211.16;5031882;28;20428;-69
2022/08/31 03:40:17;;;;;;;2.47;1.30;;;;;;;15.22;68.01;102214.22;5031932;28;20079;-69
2022/08/31 03:42:43;;;;;;;2.50;1.30;;;;;;;15.25;68.08;102205.25;5031816;28;20028;-69
2022/08/31 03:45:09;;;;;;;1.70;1.00;;;;;;;15.21;67.84;102206.56;5033179;28;20021;-69
2022/08/31 03:47:35;;;;;;;2.03;1.20;;;;;;;15.10;67.44;102200.88;5033191;28;20401;-70
2022/08/31 03:50:03;;;;;;;2.42;1.30;;;;;;;15.12;66.72;102208.47;5033086;28;20476;-69
2022/08/31 03:52:28;;;;;;;3.50;1.40;;;;;;;15.10;66.67;102211.28;5031870;28;20155;-70
2022/08/31 03:54:54;;;;;;;7.22;1.20;;;;;;;15.20;66.22;102210.19;5032940;28;20096;-69
2022/08/31 03:57:19;;;;;;;6.55;1.30;;;;;;;14.92;66.23;102212.63;5032918;28;20021;-69
2022/08/31 03:59:44;;;;;;;2.53;1.40;;;;;;;15.06;65.69;102209.22;5033141;28;20167;-70
2022/08/31 04:02:11;;;;;;;2.35;1.10;;;;;;;15.04;65.46;102216.38;5033236;28;20485;-70
2022/08/31 04:04:36;;;;;;;2.45;1.10;;;;;;;15.07;64.90;102211.63;5032979;28;20061;-70
2022/08/31 04:07:01;;;;;;;1.60;1.13;;;;;;;15.07;64.55;102214.22;5032928;28;20527;-70
2022/08/31 04:09:27;;;;;;;1.80;1.00;;;;;;;15.01;64.23;102217.56;5031599;28;20040;-70
2022/08/31 04:11:52;;;;;;;3.42;1.10;;;;;;;15.01;64.29;102212.34;5032811;28;20457;-69
2022/08/31 04:14:17;;;;;;;2.35;0.95;;;;;;;15.02;63.81;102218.38;5033007;28;20404;-70
2022/08/31 04:16:43;;;;;;;1.55;1.00;;;;;;;15.12;63.52;102216.28;5032795;28;20060;-70
2022/08/31 04:19:10;;;;;;;3.28;1.20;;;;;;;14.93;63.51;102217.66;5032888;28;20033;-69
2022/08/31 04:21:35;;;;;;;6.78;1.00;;;;;;;14.94;63.30;102226.28;5031658;28;20037;-70
2022/08/31 04:24:01;;;;;;;8.02;1.38;;;;;;;14.86;63.75;102221.97;5032863;28;20018;-69
2022/08/31 04:26:28;;;;;;;3.65;0.98;;;;;;;14.95;63.48;102226.09;5031554;28;20033;-69
2022/08/31 04:28:53;;;;;;;3.38;0.80;;;;;;;14.93;62.92;102219.44;5032577;28;20095;-69
2022/08/31 04:31:21;;;;;;;1.90;1.10;;;;;;;14.89;62.62;102219.81;5031553;28;20025;-70
2022/08/31 04:33:47;;;;;;;1.90;0.77;;;;;;;14.92;61.96;102223.03;5032592;28;20030;-69
2022/08/31 04:36:17;;;;;;;3.90;0.80;;;;;;;14.76;62.61;102224.84;5034744;28;20129;-69
2022/08/31 04:38:47;;;;;;;2.92;0.90;;;;;;;14.86;62.51;102221.97;5036266;28;20075;-70
2022/08/31 04:41:15;;;;;;;2.45;1.20;;;;;;;14.86;62.13;102229.78;5035047;28;20021;-69
2022/08/31 04:43:44;;;;;;;1.10;0.70;;;;;;;14.68;61.99;102224.13;5036267;28;20056;-69
2022/08/31 04:46:10;;;;;;;1.25;0.90;;;;;;;14.88;61.99;102226.00;5034944;28;20025;-69
2022/08/31 04:48:35;;;;;;;1.40;0.95;;;;;;;14.74;61.98;102215.59;5036208;28;20484;-70
2022/08/31 04:51:05;;;;;;;1.48;0.93;;;;;;;14.78;61.52;102222.84;5036040;28;20083;-70
2022/08/31 04:53:30;;;;;;;2.65;0.95;;;;;;;14.75;61.73;102220.63;5037112;28;20029;-70
2022/08/31 04:55:56;;;;;;;1.65;0.80;;;;;;;14.83;61.41;102225.72;5036566;28;20477;-70
2022/08/31 04:58:22;;;;;;;2.70;0.77;;;;;;;14.78;61.70;102229.88;5035923;28;20037;-69
2022/08/31 05:00:50;;;;;;;2.92;0.95;;;;;;;14.78;61.20;102235.88;5035814;28;20108;-69
2022/08/31 05:03:16;;;;;;;1.02;0.55;;;;;;;14.91;60.95;102235.25;5033457;28;20029;-71
2022/08/31 05:05:41;;;;;;;0.93;0.60;;;;;;;14.95;60.99;102243.50;5035929;28;20021;-70
2022/08/31 05:08:07;;;;;;;3.10;0.98;;;;;;;14.75;61.06;102244.03;5037360;28;20021;-70
2022/08/31 05:10:33;;;;;;;1.02;0.70;;;;;;;14.79;61.23;102244.50;5040128;28;20485;-70
2022/08/31 05:12:59;;;;;;;0.63;0.50;;;;;;;14.88;61.12;102241.63;5036189;28;20021;-69
2022/08/31 05:15:24;;;;;;;0.98;0.68;;;;;;;14.79;61.22;102249.72;5034456;28;20465;-69
2022/08/31 05:17:49;;;;;;;1.65;0.88;;;;;;;14.74;61.44;102252.03;5034298;28;20021;-69
2022/08/31 05:20:15;;;;;;;0.95;0.70;;;;;;;14.80;61.53;102249.50;5035079;28;20049;-70
2022/08/31 05:22:40;;;;;;;2.15;1.00;;;;;;;14.74;61.74;102258.03;5033288;28;20052;-69
2022/08/31 05:25:08;;;;;;;5.70;0.90;;;;;;;14.65;62.00;102257.31;5034103;28;20091;-69
2022/08/31 05:27:35;;;;;;;1.42;1.10;;;;;;;14.64;62.16;102253.09;5035513;28;20028;-69
2022/08/31 05:30:01;;;;;;;8.60;0.93;;;;;;;14.67;62.31;102257.13;5035268;28;20021;-69
2022/08/31 05:32:26;;;;;;;2.30;1.00;;;;;;;14.68;62.78;102260.56;5035484;28;20029;-69
2022/08/31 05:34:52;;;;;;;2.58;1.10;;;;;;;14.72;62.26;102264.41;5035261;28;20477;-70
2022/08/31 05:37:18;;;;;;;1.33;0.75;;;;;;;14.79;62.56;102254.91;5033914;28;20064;-68
2022/08/31 05:39:43;;;;;;;3.28;0.88;;;;;;;14.79;62.57;102260.94;5034043;28;20433;-68
2022/08/31 05:42:09;;;;;;;1.95;0.95;;;;;;;14.91;62.24;102265.69;5035141;28;20032;-69
2022/08/31 05:44:35;;;;;;;2.28;0.95;;;;;;;14.92;62.44;102262.88;5035037;28;20354;-69
2022/08/31 05:47:01;;;;;;;2.15;1.20;;;;;;;14.81;62.59;102258.94;5033023;28;20049;-71
2022/08/31 05:49:27;;;;;;;4.30;1.00;;;;;;;14.84;62.88;102261.16;5034933;28;20022;-69
2022/08/31 05:51:52;;;;;;;3.70;0.90;;;;;;;14.91;63.26;102250.88;5034980;28;20388;-69
2022/08/31 05:54:18;;;;;;;2.88;1.00;;;;;;;14.97;62.59;102257.97;5034689;28;20489;-70
2022/08/31 05:56:44;;;;;;;6.47;0.80;;;;;;;14.90;62.83;102244.03;5033431;28;20032;-69
2022/08/31 05:59:11;;;;;;;3.88;1.50;;;;;;;14.86;63.14;102266.22;5033517;28;20112;-70
2022/08/31 06:01:39;;;;;;;2.28;0.68;;;;;;;14.98;63.27;102266.56;5031964;28;20029;-69
2022/08/31 06:04:05;;;;;;;3.67;1.00;;;;;;;14.93;63.23;102258.50;5034710;28;20028;-69
2022/08/31 06:06:31;;;;;;;3.97;0.98;;;;;;;15.18;62.34;102264.22;5034625;28;20021;-70
2022/08/31 06:08:57;;;;;;;6.05;0.68;;;;;;;19.15;51.54;102264.44;5034616;28;20032;-70
2022/08/31 06:11:26;;;;;;;1.13;0.80;;;;;;;21.51;44.46;102264.63;5033291;28;20393;-68
2022/08/31 06:13:53;;;;;;;2.65;0.80;;;;;;;20.84;45.27;102262.03;5034538;28;20079;-69
2022/08/31 06:16:20;;;;;;;1.65;0.90;;;;;;;16.26;57.19;102279.03;5034315;28;20084;-69
2022/08/31 06:18:49;;;;;;;2.53;1.10;;;;;;;15.60;60.01;102268.75;5034399;28;20480;-70
2022/08/31 06:21:19;;;;;;;1.73;0.80;;;;;;;15.58;60.83;102273.31;5033389;28;20445;-70
2022/08/31 06:23:46;;;;;;;2.03;0.80;;;;;;;15.60;60.61;102268.75;5035426;28;20374;-70
2022/08/31 06:26:14;;;;;;;2.25;0.77;;;;;;;15.31;62.03;102270.41;5034197;28;20025;-69
2022/08/31 06:28:42;;;;;;;3.67;0.90;;;;;;;15.34;62.38;102277.06;5034241;28;20427;-69
2022/08/31 06:31:17;;;;;;;1.52;0.70;;;;;;;15.54;61.32;102259.06;5032910;28;20164;-71
2022/08/31 06:33:43;;;;;;;1.45;0.73;;;;;;;15.62;61.73;102273.75;5036718;28;20025;-71
2022/08/31 06:36:14;;;;;;;1.25;0.80;;;;;;;16.58;59.38;102263.81;5034864;28;20052;-70
2022/08/31 06:38:40;;;;;;;2.92;0.88;;;;;;;21.26;47.75;102269.19;5032689;28;20500;-70
2022/08/31 06:41:18;;;;;;;2.92;1.20;;;;;;;25.00;38.47;102264.78;5032703;28;20029;-69
2022/08/31 06:43:44;;;;;;;2.38;1.05;;;;;;;26.35;35.67;102277.06;5032621;28;20541;-69
2022/08/31 06:46:11;;;;;;;2.33;0.88;;;;;;;25.75;35.79;102267.63;5033695;28;20064;-71
2022/08/31 06:48:37;;;;;;;1.73;0.65;;;;;;;26.18;35.27;102279.09;5032985;28;20032;-70
2022/08/31 06:51:03;;;;;;;2.95;0.82;;;;;;;26.16;35.32;102276.72;5033565;28;20029;-69
2022/08/31 06:53:29;;;;;;;5.13;1.10;;;;;;;26.65;34.33;102273.00;5033683;28;20028;-70
2022/08/31 06:55:54;;;;;;;4.85;0.95;;;;;;;26.63;34.77;102277.75;5033692;28;20025;-70
2022/08/31 06:58:19;;;;;;;2.85;1.20;;;;;;;27.40;33.12;102268.97;5033541;28;20024;-70
2022/08/31 07:00:47;;;;;;;3.17;0.82;;;;;;;27.72;33.00;102277.75;5033603;28;20030;-70
2022/08/31 07:03:31;;;;;;;3.28;1.05;;;;;;;26.55;34.86;102279.03;5033590;28;20052;-69
2022/08/31 07:05:57;;;;;;;5.85;1.13;;;;;;;26.34;34.79;102278.91;5032466;28;20078;-69
2022/08/31 07:08:22;;;;;;;4.35;0.88;;;;;;;28.20;32.08;102287.00;5032332;28;20025;-70
2022/08/31 07:10:48;;;;;;;4.65;1.00;;;;;;;27.74;33.40;102283.59;5032766;28;20025;-69
2022/08/31 07:13:13;;;;;;;2.90;1.10;;;;;;;26.61;34.42;102287.81;5033009;28;20023;-69
2022/08/31 07:15:39;;;;;;;7.45;1.20;;;;;;;28.30;32.84;102288.81;5032958;28;20428;-70
2022/08/31 07:18:04;;;;;;;6.72;1.02;;;;;;;28.74;31.66;102293.47;5032886;28;20060;-70
2022/08/31 07:20:30;;;;;;;1.83;0.88;;;;;;;28.19;32.18;102282.72;5032987;28;20365;-70
2022/08/31 07:22:56;;;;;;;2.55;0.77;;;;;;;29.22;31.29;102294.56;5031162;28;20021;-71
2022/08/31 07:25:21;;;;;;;1.83;0.90;;;;;;;26.85;34.29;102288.19;5031469;28;20450;-70
2022/08/31 07:27:54;;;;;;;3.35;1.55;;;;;;;27.44;33.51;102283.28;5031435;28;20060;-70
2022/08/31 07:30:22;;;;;;;2.38;0.98;;;;;;;26.65;35.16;102287.06;5032943;28;20029;-69
2022/08/31 07:32:49;;;;;;;3.83;1.10;;;;;;;28.21;33.09;102275.28;5032933;28;20021;-70
2022/08/31 07:35:16;;;;;;;5.38;1.17;;;;;;;28.34;32.32;102289.91;5032122;28;20155;-70
2022/08/31 07:43:09;;;;;;;1.98;1.10;;;;;;;27.71;33.95;102287.56;5033316;28;20130;-71
2022/08/31 07:45:36;;;;;;;3.63;1.10;;;;;;;27.17;34.54;102285.41;5031740;28;20392;-70
2022/08/31 07:48:02;;;;;;;3.60;1.13;;;;;;;27.74;33.62;102289.69;5031783;28;20108;-69
2022/08/31 07:50:30;;;;;;;4.22;1.95;;;;;;;25.19;38.08;102279.31;5032977;28;20053;-69
2022/08/31 07:52:57;;;;;;;5.22;1.30;;;;;;;26.39;36.63;102294.06;5031698;28;20040;-70
2022/08/31 07:55:24;;;;;;;3.55;1.40;;;;;;;26.31;36.68;102290.03;5031567;28;20049;-70
2022/08/31 07:57:52;;;;;;;2.90;1.00;;;;;;;27.88;34.74;102289.97;5032867;28;20421;-69
2022/08/31 08:00:24;;;;;;;7.97;1.38;;;;;;;28.52;33.02;102299.97;5033024;28;20028;-69
2022/08/31 08:02:50;;;;;;;3.80;1.20;;;;;;;28.13;33.62;102295.22;5032900;28;20443;-70
2022/08/31 08:05:21;;;;;;;2.88;1.10;;;;;;;28.38;33.90;102295.47;5032831;28;20104;-70
2022/08/31 08:07:52;;;;;;;3.13;1.23;;;;;;;28.03;34.20;102302.44;5032869;28;20104;-69
2022/08/31 08:10:20;;;;;;;6.80;1.73;;;;;;;26.69;36.17;102308.53;5032298;28;20044;-69
2022/08/31 08:12:56;;;;;;;3.53;1.10;;;;;;;28.59;33.61;102306.84;5035534;28;20021;-68
2022/08/31 08:15:23;;;;;;;1.80;1.08;;;;;;;28.05;34.08;102305.63;5036869;28;20029;-70
2022/08/31 08:17:48;;;;;;;2.55;1.20;;;;;;;27.32;34.47;102301.34;5035393;28;20053;-70
2022/08/31 08:20:13;;;;;;;9.48;1.48;;;;;;;28.19;33.53;102309.31;5018931;28;20497;-70
2022/08/31 08:22:40;;;;;;;4.90;1.50;;;;;;;27.85;33.97;102304.59;5036698;28;20025;-70
2022/08/31 08:25:05;;;;;;;11.15;1.98;;;;;;;27.54;33.53;102302.97;5035189;28;20068;-70
2022/08/31 08:27:32;;;;;;;2.83;1.17;;;;;;;25.81;36.75;102309.81;5036726;28;20072;-70
2022/08/31 08:29:58;;;;;;;1.30;0.70;;;;;;;27.38;34.47;102300.28;5037280;28;20025;-70
2022/08/31 08:32:24;;;;;;;6.68;1.13;;;;;;;26.11;36.36;102309.25;5036545;28;20504;-70
2022/08/31 08:34:51;;;;;;;1.83;1.10;;;;;;;24.95;38.73;102309.69;5036462;28;20025;-69
2022/08/31 08:37:16;;;;;;;6.10;1.30;;;;;;;25.07;37.94;102305.06;5036313;28;20404;-70
2022/08/31 08:39:42;;;;;;;5.97;1.30;;;;;;;25.41;37.81;102299.66;5036239;28;20029;-70
2022/08/31 08:42:11;;;;;;;7.70;1.30;;;;;;;23.22;42.71;102302.47;5036287;28;20029;-70
2022/08/31 08:44:38;;;;;;;2.58;1.08;;;;;;;22.82;43.53;102293.50;5036233;28;20027;-69
2022/08/31 08:47:13;;;;;;;8.63;1.30;;;;;;;21.27;47.09;102312.88;5035109;28;20027;-69
2022/08/31 08:49:54;;;;;;;1.40;1.10;;;;;;;21.69;46.75;102319.00;5036010;28;20036;-70
2022/08/31 08:52:42;;;;;;;4.30;1.20;;;;;;;22.26;45.97;102310.69;5034633;28;20021;-71
2022/08/31 08:55:22;;;;;;;1.75;1.20;;;;;;;22.45;45.69;102312.19;5034377;28;20134;-71
2022/08/31 08:57:51;;;;;;;3.10;1.30;;;;;;;21.75;47.11;102296.28;5034460;28;20025;-71
2022/08/31 09:00:20;;;;;;;6.47;1.30;;;;;;;22.70;45.83;102304.06;5035969;28;20104;-70
2022/08/31 09:03:00;;;;;;;3.35;1.35;;;;;;;22.45;46.58;102304.31;5034485;28;20040;-71
2022/08/31 09:05:39;;;;;;;3.97;1.48;;;;;;;22.56;46.11;102292.16;5035788;28;20025;-71
2022/08/31 09:08:30;;;;;;;3.25;1.40;;;;;;;21.82;48.14;102286.47;5035948;28;20030;-70
2022/08/31 09:11:45;;;;;;;2.50;1.15;;;;;;;22.00;47.83;102301.38;5036066;28;20021;-71
2022/08/31 09:14:32;;;;;;;3.45;1.45;;;;;;;22.36;47.37;102302.25;4976318;28;20060;-70
2022/08/31 09:17:05;;;;;;;5.70;1.45;;;;;;;22.52;46.29;102296.28;5035515;28;20026;-71
2022/08/31 09:19:57;;;;;;;;;;;;;;;22.19;46.96;102315.28;5036134;28;20033;-70
2022/08/31 09:22:18;;;;;;;6.88;1.50;;;;;;;23.07;45.05;102290.59;5034473;28;19932;-71
2022/08/31 09:24:44;;;;;;;3.88;1.27;;;;;;;23.53;44.66;102296.72;5034288;28;20026;-70
2022/08/31 09:27:19;;;;;;;3.53;1.58;;;;;;;23.10;45.53;102290.16;5035493;28;20018;-70
2022/08/31 09:29:58;;;;;;;10.85;1.50;;;;;;;23.13;45.01;102289.69;5018746;28;20029;-69
2022/08/31 09:32:30;;;;;;;8.27;1.30;;;;;;;24.03;44.07;102293.38;5034354;28;20075;-70
2022/08/31 09:35:23;;;;;;;4.00;1.40;;;;;;;22.90;45.49;102301.06;5034155;28;20121;-71
2022/08/31 09:37:57;;;;;;;;;;;;;;;21.94;48.00;102297.81;5035481;28;20088;-70
2022/08/31 09:40:37;;;;;;;5.72;1.52;;;;;;;22.19;46.64;102294.22;5034031;28;19908;-71
2022/08/31 09:43:12;;;;;;;3.90;1.30;;;;;;;23.07;46.03;102290.59;5034110;28;20022;-71
2022/08/31 09:45:56;;;;;;;2.47;1.30;;;;;;;23.92;43.79;102290.81;5035182;28;20032;-70
2022/08/31 09:48:50;;;;;;;4.22;1.35;;;;;;;24.18;43.96;102295.44;5034972;28;20052;-72
2022/08/31 09:51:28;;;;;;;3.55;1.35;;;;;;;22.58;47.28;102276.91;5033705;28;20508;-70
2022/08/31 09:57:04;;;;;;;3.63;1.17;;;;;;;24.15;43.82;102280.06;5035194;28;20531;-69
2022/08/31 09:59:36;;;;;;;5.68;1.20;;;;;;;24.38;42.57;102284.34;5034912;28;20028;-69
2022/08/31 10:02:06;;;;;;;4.07;1.40;;;;;;;24.52;42.58;102280.34;5033559;28;20120;-71
2022/08/31 10:04:36;;;;;;;5.93;1.80;;;;;;;25.19;41.07;102289.91;5034806;28;20461;-68
2022/08/31 10:07:27;;;;;;;8.68;1.55;;;;;;;25.01;40.96;102289.41;5033397;28;20018;-68
2022/08/31 10:10:10;;;;;;;4.13;1.58;;;;;;;24.39;42.23;102285.94;5033197;28;20029;-70
2022/08/31 10:12:48;;;;;;;3.38;1.30;;;;;;;24.94;41.40;102281.66;5034588;28;20026;-70
2022/08/31 10:15:32;;;;;;;3.47;1.50;;;;;;;25.99;40.02;102276.84;5033178;28;20033;-71
2022/08/31 10:18:12;;;;;;;6.43;1.50;;;;;;;24.54;41.50;102272.16;5033434;28;20029;-70
2022/08/31 10:20:44;;;;;;;4.63;1.23;;;;;;;25.44;39.69;102284.06;5033091;28;20449;-70
2022/08/31 10:23:32;;;;;;;11.57;1.45;;;;;;;24.64;40.67;102292.66;5033549;28;20041;-70
2022/08/31 10:26:06;;;;;;;5.03;1.50;;;;;;;23.60;42.43;102292.09;5033228;28;20029;-69
2022/08/31 10:28:49;;;;;;;4.40;1.45;;;;;;;23.93;41.78;102284.47;5034193;28;20447;-70
2022/08/31 10:31:28;;;;;;;7.78;1.50;;;;;;;24.24;41.03;102280.47;5034348;28;20021;-70
2022/08/31 10:36:58;;;;;;;2.08;1.30;;;;;;;25.62;38.36;102277.59;5034306;28;20544;-70
2022/08/31 10:39:32;;;;;;;6.82;1.08;;;;;;;25.53;39.51;102268.53;5034180;28;20029;-70
2022/08/31 10:42:04;;;;;;;9.27;1.30;;;;;;;24.83;40.17;102277.28;5033990;28;20025;-69
2022/08/31 10:44:51;;;;;;;3.25;1.40;;;;;;;24.22;40.70;102270.13;5032998;28;20028;-69
2022/08/31 10:47:17;;;;;;;3.55;1.10;;;;;;;23.47;42.42;102273.91;5032948;28;20018;-70
2022/08/31 10:49:42;;;;;;;3.22;1.17;;;;;;;24.53;40.38;102265.28;5034538;28;20100;-70
2022/08/31 10:52:31;;;;;;;4.93;1.40;;;;;;;25.04;39.65;102260.63;5034354;28;20079;-70
2022/08/31 10:55:31;;;;;;;4.78;1.40;;;;;;;24.84;39.53;102265.69;5032178;28;20056;-71
2022/08/31 10:58:30;;;;;;;5.90;1.45;;;;;;;25.78;38.84;102269.78;5032185;28;20026;-70
2022/08/31 11:01:08;;;;;;;1.55;1.00;;;;;;;26.77;36.57;102271.72;5032224;28;20094;-70
2022/08/31 11:03:34;;;;;;;7.60;1.67;;;;;;;26.72;36.12;102279.66;5033751;28;20052;-72
2022/08/31 11:06:38;;;;;;;1.73;1.30;;;;;;;24.68;39.30;102270.75;5032710;28;20030;-70
2022/08/31 11:09:13;;;;;;;3.30;1.30;;;;;;;25.83;37.94;102256.59;5013603;28;20457;-70
2022/08/31 11:12:03;;;;;;;3.38;1.50;;;;;;;25.83;37.98;102262.69;5039877;28;20028;-72
2022/08/31 11:15:05;;;;;;;8.25;1.30;;;;;;;25.72;37.95;102257.53;5041628;28;20034;-73
2022/08/31 11:17:39;;;;;;;5.38;1.48;;;;;;;26.11;37.79;102264.22;5041696;28;20071;-72
2022/08/31 11:20:26;;;;;;;5.53;1.50;;;;;;;26.02;37.83;102265.75;5038593;28;20109;-73
2022/08/31 11:23:25;;;;;;;5.07;1.50;;;;;;;25.87;37.19;102249.75;5041791;28;20045;-72
2022/08/31 11:26:31;;;;;;;2.60;1.40;;;;;;;25.79;37.60;102255.50;5041326;28;20052;-73
2022/08/31 11:29:08;;;;;;;2.75;1.25;;;;;;;25.70;37.87;102259.66;5041098;28;20021;-73
2022/08/31 11:31:37;;;;;;;3.35;1.30;;;;;;;24.51;39.61;102254.16;5018165;28;20112;-71
2022/08/31 11:34:14;;;;;;;7.22;1.20;;;;;;;26.10;36.89;102252.03;5034464;28;20026;-71
2022/08/31 11:36:47;;;;;;;3.00;1.25;;;;;;;26.15;36.79;102263.69;5034091;28;20049;-70
2022/08/31 11:39:14;;;;;;;7.50;1.50;;;;;;;26.28;36.38;102245.50;5031815;28;20091;-70
2022/08/31 11:41:48;;;;;;;3.40;1.33;;;;;;;26.61;35.16;102240.09;5033448;28;20369;-72
2022/08/31 11:44:38;;;;;;;3.42;1.30;;;;;;;26.74;34.84;102244.94;5032623;28;20449;-70
2022/08/31 11:47:28;;;;;;;3.65;1.40;;;;;;;26.62;35.21;102236.41;5032937;28;20025;-70
2022/08/31 11:49:55;;;;;;;2.63;1.13;;;;;;;26.35;35.19;102242.63;5032711;28;20432;-72
2022/08/31 11:52:23;;;;;;;3.95;1.25;;;;;;;25.59;36.29;102243.69;5032767;28;20057;-70
2022/08/31 11:54:49;;;;;;;3.45;1.20;;;;;;;26.34;35.08;102235.72;5030466;28;20045;-72